Time;durP1;ratioP1;P1;durP2;ratioP2;P2;SDS_P1;SDS_P2;PMS_P1;PMS_P2;Temp;Humidity;BMP_temperature;BMP_pressure;BME280_temperature;BME280_humidity;BME280_pressure;Samples;Min_cycle;Max_cycle;Signal;HPM_P1;HPM_P2
2023/09/11 00:00:43;;;;;;;93.35;39.03;;;;;;;15.07;100.00;101557.31;4944058;28;20278;-49
2023/09/11 00:03:08;;;;;;;116.45;36.63;;;;;;;15.08;100.00;101552.78;4939499;28;20556;-48
2023/09/11 00:05:34;;;;;;;172.13;37.20;;;;;;;14.98;100.00;101546.94;4937867;28;21067;-48
2023/09/11 00:07:59;;;;;;;102.10;32.55;;;;;;;15.03;100.00;101542.19;4939445;28;20195;-49
2023/09/11 00:10:25;;;;;;;190.77;37.53;;;;;;;14.95;100.00;101534.44;4938366;28;20222;-51
2023/09/11 00:12:50;;;;;;;34.58;30.90;;;;;;;15.06;100.00;101536.66;4941124;28;20195;-49
2023/09/11 00:15:16;;;;;;;74.30;36.28;;;;;;;15.07;100.00;101527.63;4939912;28;20225;-51
2023/09/11 00:17:43;;;;;;;91.00;37.60;;;;;;;15.07;100.00;101519.53;4939525;28;20197;-50
2023/09/11 00:20:09;;;;;;;160.98;37.03;;;;;;;15.01;100.00;101528.75;4938570;28;20621;-49
2023/09/11 00:22:35;;;;;;;150.98;35.05;;;;;;;14.93;100.00;101528.22;4943971;28;20638;-50
2023/09/11 00:25:01;;;;;;;103.93;35.92;;;;;;;14.94;100.00;101526.44;4936717;28;20180;-49
2023/09/11 00:27:26;;;;;;;30.90;25.40;;;;;;;15.14;100.00;101529.09;4940406;28;20197;-49
2023/09/11 00:29:52;;;;;;;47.80;33.03;;;;;;;15.11;100.00;101523.84;4936558;28;20537;-51
2023/09/11 00:32:18;;;;;;;49.05;32.75;;;;;;;15.08;100.00;101525.78;4946902;28;20207;-51
2023/09/11 00:34:43;;;;;;;29.35;26.42;;;;;;;15.15;100.00;101522.75;4940167;28;20645;-49
2023/09/11 00:37:09;;;;;;;80.15;35.97;;;;;;;14.96;100.00;101520.00;4942350;28;20548;-50
2023/09/11 00:39:35;;;;;;;31.48;28.17;;;;;;;15.10;100.00;101522.06;4942882;28;20171;-51
2023/09/11 00:42:00;;;;;;;77.60;34.20;;;;;;;15.03;100.00;101516.06;4938590;28;20349;-47
2023/09/11 00:44:26;;;;;;;39.10;30.23;;;;;;;15.12;100.00;101511.22;4941606;28;20194;-51
2023/09/11 00:46:53;;;;;;;71.93;33.83;;;;;;;15.07;100.00;101511.44;4941284;28;20176;-51
2023/09/11 00:49:20;;;;;;;34.08;30.10;;;;;;;15.08;100.00;101515.88;4945239;28;20208;-48
2023/09/11 00:51:48;;;;;;;75.05;33.30;;;;;;;15.05;100.00;101507.91;4935849;28;20587;-50
2023/09/11 00:54:14;;;;;;;40.80;32.00;;;;;;;15.03;100.00;101502.59;4942059;28;20613;-48
2023/09/11 00:56:40;;;;;;;98.18;34.10;;;;;;;14.84;100.00;101501.66;4937884;28;20188;-49
2023/09/11 00:59:06;;;;;;;72.55;32.20;;;;;;;14.86;100.00;101507.00;4957890;28;20202;-48
2023/09/11 01:01:32;;;;;;;102.00;33.90;;;;;;;14.77;100.00;101508.28;4940713;28;20647;-47
2023/09/11 01:03:58;;;;;;;83.68;33.40;;;;;;;14.74;100.00;101508.44;4941835;28;20206;-47
2023/09/11 01:06:24;;;;;;;51.45;28.83;;;;;;;14.91;100.00;101515.75;4942428;28;20199;-47
2023/09/11 01:08:54;;;;;;;34.33;30.10;;;;;;;14.92;100.00;101501.34;4947187;28;20382;-49
2023/09/11 01:11:20;;;;;;;58.55;32.33;;;;;;;14.94;100.00;101499.44;4937847;28;20710;-49
2023/09/11 01:13:47;;;;;;;39.92;32.70;;;;;;;14.94;100.00;101488.66;4939643;28;20187;-48
2023/09/11 01:16:34;;;;;;;33.00;29.27;;;;;;;15.00;100.00;101497.34;4939527;28;20194;-49
2023/09/11 01:19:18;;;;;;;29.52;26.83;;;;;;;15.10;100.00;101499.59;4940233;28;20947;-50
2023/09/11 01:21:59;;;;;;;29.50;26.80;;;;;;;15.11;100.00;101494.16;4939331;28;20517;-49
2023/09/11 01:24:34;;;;;;;39.35;33.67;;;;;;;15.07;100.00;101489.84;4957002;28;20454;-49
2023/09/11 01:27:29;;;;;;;49.45;34.45;;;;;;;15.00;100.00;101486.53;4955194;28;20187;-47
2023/09/11 01:29:57;;;;;;;40.47;34.45;;;;;;;15.04;100.00;101490.84;4939861;28;20626;-50
2023/09/11 01:32:25;;;;;;;34.85;31.05;;;;;;;15.05;100.00;101483.63;4954628;28;20601;-48
2023/09/11 01:34:51;;;;;;;30.25;27.38;;;;;;;15.20;100.00;101488.31;4938176;28;20207;-49
2023/09/11 01:37:17;;;;;;;38.55;30.88;;;;;;;15.01;100.00;101476.63;4938722;28;20206;-51
2023/09/11 01:39:43;;;;;;;38.70;28.27;;;;;;;15.03;100.00;101481.00;4956079;28;20238;-50
2023/09/11 01:42:15;;;;;;;30.95;25.45;;;;;;;15.07;100.00;101479.03;4945855;28;20297;-48
2023/09/11 01:44:46;;;;;;;29.17;26.40;;;;;;;15.10;100.00;101469.91;4940645;28;20230;-50
2023/09/11 01:47:14;;;;;;;27.88;25.08;;;;;;;15.08;100.00;101464.59;4944784;28;20206;-48
2023/09/11 01:49:42;;;;;;;28.15;25.70;;;;;;;15.08;100.00;101474.50;4954304;28;20195;-51
2023/09/11 01:52:10;;;;;;;40.17;28.10;;;;;;;15.04;100.00;101476.47;4942840;28;20291;-47
2023/09/11 01:54:36;;;;;;;57.38;27.50;;;;;;;14.91;100.00;101477.97;4935669;28;20194;-48
2023/09/11 01:57:02;;;;;;;30.77;23.90;;;;;;;14.98;100.00;101471.38;4941930;28;20597;-49
2023/09/11 01:59:28;;;;;;;47.67;25.92;;;;;;;14.79;100.00;101466.81;4941792;28;20518;-48
2023/09/11 02:01:53;;;;;;;54.58;27.38;;;;;;;14.78;100.00;101456.97;4955302;28;20210;-51
2023/09/11 02:04:19;;;;;;;22.52;20.63;;;;;;;14.92;100.00;101471.66;4938222;28;20171;-49
2023/09/11 02:06:45;;;;;;;54.47;27.63;;;;;;;14.86;100.00;101472.81;4954053;28;20201;-49
2023/09/11 02:09:10;;;;;;;47.17;27.70;;;;;;;14.79;100.00;101456.03;4942501;28;20269;-47
2023/09/11 02:11:35;;;;;;;30.15;27.13;;;;;;;14.84;100.00;101462.06;4944595;28;20253;-49
2023/09/11 02:14:01;;;;;;;44.42;28.17;;;;;;;14.85;100.00;101473.75;4939863;28;20641;-47
2023/09/11 02:16:28;;;;;;;29.55;26.80;;;;;;;14.82;100.00;101464.00;4941282;28;20179;-51
2023/09/11 02:18:53;;;;;;;28.30;25.50;;;;;;;14.80;100.00;101464.97;4954755;28;20235;-49
2023/09/11 02:21:19;;;;;;;28.60;25.70;;;;;;;14.83;100.00;101467.56;4939069;28;20285;-49
2023/09/11 02:23:45;;;;;;;68.57;27.92;;;;;;;14.69;100.00;101461.91;4945601;28;20382;-48
2023/09/11 02:26:11;;;;;;;28.48;25.65;;;;;;;14.71;100.00;101451.91;4925085;28;20680;-48
2023/09/11 02:28:36;;;;;;;31.92;25.77;;;;;;;14.63;100.00;101444.19;4938923;28;20665;-48
2023/09/11 02:31:02;;;;;;;161.25;30.38;;;;;;;14.53;100.00;101448.22;4957413;28;20261;-50
2023/09/11 02:33:27;;;;;;;67.32;29.63;;;;;;;14.57;100.00;101434.53;4945988;28;20636;-49
2023/09/11 02:35:54;;;;;;;65.57;28.40;;;;;;;14.53;100.00;101448.22;4935716;28;20184;-48
2023/09/11 02:38:20;;;;;;;50.85;27.80;;;;;;;14.49;100.00;101457.38;4938543;28;20188;-49
2023/09/11 02:40:46;;;;;;;49.05;26.92;;;;;;;14.54;100.00;101449.94;4954828;28;20210;-48
2023/09/11 02:43:12;;;;;;;30.13;23.58;;;;;;;14.69;100.00;101459.19;4939765;28;20179;-50
2023/09/11 02:45:37;;;;;;;30.80;27.70;;;;;;;14.67;100.00;101450.31;4938549;28;20258;-49
2023/09/11 02:48:03;;;;;;;32.33;28.95;;;;;;;14.64;100.00;101451.31;4952418;28;20464;-50
2023/09/11 02:50:28;;;;;;;26.52;24.20;;;;;;;14.72;100.00;101457.25;4939272;28;20202;-49
2023/09/11 02:52:54;;;;;;;36.30;28.85;;;;;;;14.75;100.00;101453.53;4953984;28;20689;-48
2023/09/11 02:55:19;;;;;;;29.48;26.63;;;;;;;14.81;100.00;101458.66;4941419;28;20182;-50
2023/09/11 02:57:45;;;;;;;65.45;28.63;;;;;;;14.65;100.00;101447.69;4940318;28;20176;-49
2023/09/11 03:00:11;;;;;;;27.80;24.73;;;;;;;14.81;100.00;101461.34;4941470;28;20187;-49
2023/09/11 03:02:36;;;;;;;42.83;28.30;;;;;;;14.79;100.00;101455.16;4955622;28;20175;-48
2023/09/11 03:05:02;;;;;;;48.58;27.83;;;;;;;14.70;100.00;101456.44;4943950;28;20183;-50
2023/09/11 03:07:28;;;;;;;26.08;23.58;;;;;;;14.77;100.00;101454.34;4943362;28;20182;-51
2023/09/11 03:09:53;;;;;;;27.95;25.08;;;;;;;14.78;100.00;101451.59;4948601;28;20714;-48
2023/09/11 03:12:19;;;;;;;32.92;28.58;;;;;;;14.79;100.00;101461.41;4937623;28;20531;-47
2023/09/11 03:14:44;;;;;;;25.08;22.88;;;;;;;14.88;100.00;101462.81;4942878;28;20179;-47
2023/09/11 03:17:13;;;;;;;29.15;26.13;;;;;;;14.86;100.00;101470.09;4957196;28;20559;-48
2023/09/11 03:19:39;;;;;;;38.38;29.17;;;;;;;14.82;100.00;101461.28;4935552;28;20176;-48
2023/09/11 03:22:04;;;;;;;32.78;24.13;;;;;;;14.94;100.00;101451.75;4949120;28;20699;-49
2023/09/11 03:24:31;;;;;;;54.97;28.15;;;;;;;14.98;100.00;101456.06;4948135;28;20187;-48
2023/09/11 03:26:56;;;;;;;32.15;28.98;;;;;;;14.96;100.00;101459.78;4946866;28;20200;-47
2023/09/11 03:29:22;;;;;;;31.02;25.63;;;;;;;14.97;100.00;101453.41;4940857;28;20579;-48
2023/09/11 03:31:47;;;;;;;57.92;29.55;;;;;;;14.90;100.00;101449.25;4956001;28;20682;-51
2023/09/11 03:34:13;;;;;;;32.03;28.55;;;;;;;14.96;100.00;101443.59;4945881;28;20187;-48
2023/09/11 03:36:40;;;;;;;37.63;27.75;;;;;;;15.04;100.00;101442.28;4962315;28;20510;-49
2023/09/11 03:39:07;;;;;;;44.55;29.27;;;;;;;15.05;100.00;101443.16;4940342;28;20201;-49
2023/09/11 03:41:33;;;;;;;42.83;26.25;;;;;;;15.12;100.00;101443.72;4956635;28;20207;-50
2023/09/11 03:43:59;;;;;;;27.73;25.23;;;;;;;15.04;100.00;101441.38;4942924;28;20561;-48
2023/09/11 03:46:25;;;;;;;58.67;30.92;;;;;;;15.02;100.00;101444.19;4944489;28;20333;-49
2023/09/11 03:48:51;;;;;;;38.03;28.75;;;;;;;15.06;100.00;101439.47;4940835;28;20225;-49
2023/09/11 03:51:18;;;;;;;30.33;27.38;;;;;;;15.05;100.00;101432.34;4941108;28;20229;-48
2023/09/11 03:53:44;;;;;;;29.52;26.63;;;;;;;15.08;100.00;101426.78;4956796;28;20570;-48
2023/09/11 03:56:12;;;;;;;35.28;26.30;;;;;;;15.08;100.00;101431.31;4945783;28;20675;-49
2023/09/11 03:58:38;;;;;;;51.75;29.67;;;;;;;15.03;100.00;101434.25;4956794;28;20184;-49
2023/09/11 04:01:04;;;;;;;28.90;26.08;;;;;;;15.02;100.00;101432.47;4942185;28;20734;-49
2023/09/11 04:03:30;;;;;;;30.08;26.42;;;;;;;15.06;100.00;101433.22;4946234;28;20278;-50
2023/09/11 04:05:55;;;;;;;63.80;29.95;;;;;;;14.92;100.00;101420.38;4941742;28;20251;-48
2023/09/11 04:08:21;;;;;;;159.40;29.70;;;;;;;14.79;100.00;101420.09;4939103;28;20270;-48
2023/09/11 04:10:47;;;;;;;59.97;27.95;;;;;;;14.74;100.00;101422.13;4939796;28;20294;-49
2023/09/11 04:13:12;;;;;;;48.88;28.45;;;;;;;14.81;100.00;101426.28;4939731;28;20183;-50
2023/09/11 04:15:38;;;;;;;35.65;26.58;;;;;;;14.73;100.00;101417.66;4941571;28;20175;-48
2023/09/11 04:18:04;;;;;;;87.45;26.65;;;;;;;14.72;100.00;101415.94;4935816;28;20686;-47
2023/09/11 04:20:33;;;;;;;58.97;27.05;;;;;;;14.66;100.00;101414.38;4942129;28;20244;-48
2023/09/11 04:23:00;;;;;;;71.05;26.63;;;;;;;14.57;100.00;101409.41;4956107;28;20187;-48
2023/09/11 04:25:27;;;;;;;27.90;25.20;;;;;;;14.59;100.00;101415.59;4936360;28;20237;-47
2023/09/11 04:27:52;;;;;;;45.28;24.95;;;;;;;14.54;100.00;101407.69;4939387;28;20184;-47
2023/09/11 04:30:18;;;;;;;25.58;22.95;;;;;;;14.62;100.00;101402.84;4939784;28;20223;-49
2023/09/11 04:32:44;;;;;;;21.25;19.25;;;;;;;14.72;100.00;101410.53;4938097;28;20517;-48
2023/09/11 04:35:10;;;;;;;53.08;23.15;;;;;;;14.65;100.00;101401.84;4931754;28;20187;-51
2023/09/11 04:37:36;;;;;;;27.63;21.85;;;;;;;14.64;100.00;101402.78;4937861;28;20184;-48
2023/09/11 04:40:05;;;;;;;23.63;21.23;;;;;;;14.72;100.00;101411.41;4939655;28;20696;-49
2023/09/11 04:42:31;;;;;;;26.05;22.65;;;;;;;14.71;100.00;101411.47;4939807;28;20190;-48
2023/09/11 04:44:59;;;;;;;53.60;24.70;;;;;;;14.62;100.00;101396.56;4938977;28;20646;-48
2023/09/11 04:47:30;;;;;;;22.63;20.52;;;;;;;14.67;100.00;101405.34;4943559;28;20183;-47
2023/09/11 04:49:56;;;;;;;41.88;24.33;;;;;;;14.66;100.00;101406.28;4950545;28;20354;-47
2023/09/11 04:52:21;;;;;;;31.05;23.85;;;;;;;14.67;100.00;101408.06;4939761;28;20756;-49
2023/09/11 04:54:47;;;;;;;71.45;24.52;;;;;;;14.71;100.00;101416.84;4954024;28;20745;-48
2023/09/11 04:57:13;;;;;;;25.83;23.02;;;;;;;14.67;100.00;101421.53;4954119;28;20183;-48
2023/09/11 04:59:38;;;;;;;31.23;22.15;;;;;;;14.81;100.00;101427.16;4935430;28;20303;-49
2023/09/11 05:02:04;;;;;;;43.75;26.90;;;;;;;14.83;100.00;101429.78;4940359;28;20238;-47
2023/09/11 05:04:29;;;;;;;25.58;22.88;;;;;;;14.88;100.00;101427.75;4946211;28;20175;-48
2023/09/11 05:06:55;;;;;;;23.85;21.48;;;;;;;14.98;100.00;101430.91;4954188;28;20171;-47
2023/09/11 05:09:20;;;;;;;67.05;28.83;;;;;;;14.88;100.00;101425.03;4951725;28;20214;-51
2023/09/11 05:11:46;;;;;;;39.95;27.08;;;;;;;14.90;100.00;101422.28;4953389;28;20203;-49
2023/09/11 05:14:12;;;;;;;51.55;28.33;;;;;;;14.89;100.00;101425.91;4940399;28;20511;-50
2023/09/11 05:16:38;;;;;;;34.63;25.15;;;;;;;14.84;100.00;101424.28;4931087;29;20183;-48
2023/09/11 05:19:04;;;;;;;58.75;28.38;;;;;;;14.91;100.00;101435.72;4953764;28;20179;-48
2023/09/11 05:21:32;;;;;;;42.80;28.33;;;;;;;14.90;100.00;101438.47;4938195;28;20289;-49
2023/09/11 05:23:58;;;;;;;23.85;21.35;;;;;;;15.03;100.00;101439.66;4936549;28;20633;-51
2023/09/11 05:26:23;;;;;;;31.15;27.55;;;;;;;15.05;100.00;101443.16;4937539;28;20285;-50
2023/09/11 05:28:49;;;;;;;30.10;26.17;;;;;;;15.13;100.00;101449.06;4937081;28;20179;-48
2023/09/11 05:31:14;;;;;;;28.00;25.08;;;;;;;15.13;100.00;101434.66;4939408;28;20207;-50
2023/09/11 05:33:40;;;;;;;51.20;28.40;;;;;;;15.06;100.00;101444.00;4939331;28;20174;-48
2023/09/11 05:36:06;;;;;;;55.90;29.60;;;;;;;15.06;100.00;101436.78;4940155;28;20193;-47
2023/09/11 05:38:31;;;;;;;33.90;29.08;;;;;;;15.08;100.00;101439.44;4939973;28;20175;-49
2023/09/11 05:40:57;;;;;;;34.70;27.85;;;;;;;15.10;100.00;101435.69;4937986;28;20580;-51
2023/09/11 05:43:22;;;;;;;32.13;27.80;;;;;;;15.17;100.00;101428.19;4936857;28;20254;-49
2023/09/11 05:45:48;;;;;;;37.72;30.42;;;;;;;15.22;100.00;101434.25;4939781;28;20190;-48
2023/09/11 05:48:14;;;;;;;46.65;31.55;;;;;;;15.23;100.00;101433.28;4939877;28;20294;-50
2023/09/11 05:50:39;;;;;;;31.77;27.83;;;;;;;15.24;100.00;101424.25;4931181;28;20207;-50
2023/09/11 05:53:06;;;;;;;45.13;30.75;;;;;;;15.24;100.00;101433.22;4943653;28;20242;-47
2023/09/11 05:55:35;;;;;;;43.00;30.30;;;;;;;15.24;100.00;101435.94;4949384;28;20261;-44
2023/09/11 05:58:01;;;;;;;59.63;30.98;;;;;;;15.23;100.00;101436.84;4944777;28;20183;-47
2023/09/11 06:00:27;;;;;;;32.00;28.13;;;;;;;15.23;100.00;101436.00;4982532;23;20233;-45
2023/09/11 06:02:53;;;;;;;35.00;27.88;;;;;;;15.30;100.00;101432.03;4976854;28;20181;-43
2023/09/11 06:05:19;;;;;;;35.75;28.63;;;;;;;15.35;100.00;101437.22;4981928;28;20305;-44
2023/09/11 06:07:45;;;;;;;30.90;27.73;;;;;;;15.37;100.00;101429.91;4982022;28;20551;-42
2023/09/11 06:10:12;;;;;;;37.13;28.38;;;;;;;15.38;100.00;101437.94;4977653;28;20229;-43
2023/09/11 06:12:38;;;;;;;37.40;28.77;;;;;;;15.39;100.00;101431.63;4977877;28;20777;-44
2023/09/11 06:15:05;;;;;;;42.92;29.45;;;;;;;15.35;100.00;101427.31;4977819;28;20290;-44
2023/09/11 06:17:32;;;;;;;40.50;28.98;;;;;;;15.45;100.00;101427.72;4976772;28;20185;-44
2023/09/11 06:19:58;;;;;;;37.35;31.25;;;;;;;15.45;100.00;101434.00;4978218;28;20193;-45
2023/09/11 06:22:23;;;;;;;40.58;29.52;;;;;;;15.40;100.00;101424.38;4975033;28;20184;-45
2023/09/11 06:24:49;;;;;;;33.10;27.73;;;;;;;15.48;100.00;101424.88;4977531;28;20201;-45
2023/09/11 06:27:15;;;;;;;46.22;31.00;;;;;;;15.48;100.00;101432.09;4980283;28;20189;-45
2023/09/11 06:29:41;;;;;;;53.58;30.58;;;;;;;15.49;100.00;101426.63;4978831;28;20205;-42
2023/09/11 06:32:06;;;;;;;35.63;31.45;;;;;;;15.48;100.00;101438.41;4977504;28;20561;-43
2023/09/11 06:34:32;;;;;;;44.65;32.05;;;;;;;15.53;100.00;101425.53;4969786;28;20189;-44
2023/09/11 06:36:58;;;;;;;38.60;30.35;;;;;;;15.57;100.00;101427.13;4977331;28;20189;-45
2023/09/11 06:39:24;;;;;;;40.28;31.45;;;;;;;15.60;100.00;101429.66;4979085;28;20177;-45
2023/09/11 06:41:49;;;;;;;45.95;31.42;;;;;;;15.59;100.00;101427.03;4971694;28;20221;-41
2023/09/11 06:44:15;;;;;;;36.35;29.95;;;;;;;15.72;100.00;101420.13;4977096;28;20208;-45
2023/09/11 06:46:41;;;;;;;34.78;31.05;;;;;;;15.78;100.00;101418.94;4981301;28;20216;-45
2023/09/11 06:49:06;;;;;;;38.25;32.45;;;;;;;15.89;100.00;101421.94;4977783;28;20204;-46
2023/09/11 06:51:33;;;;;;;59.60;32.67;;;;;;;15.74;100.00;101412.81;4979467;28;20335;-43
2023/09/11 06:53:58;;;;;;;42.33;31.58;;;;;;;15.89;100.00;101410.28;4980238;28;20620;-43
2023/09/11 06:56:24;;;;;;;36.92;31.77;;;;;;;15.95;100.00;101407.25;4981660;28;20182;-44
2023/09/11 06:58:50;;;;;;;31.13;27.83;;;;;;;16.03;100.00;101416.72;4975838;28;20217;-43
2023/09/11 07:01:15;;;;;;;47.47;33.33;;;;;;;15.96;100.00;101407.19;4980830;28;20212;-45
2023/09/11 07:03:41;;;;;;;35.08;29.58;;;;;;;16.04;100.00;101402.25;4981092;28;20184;-45
2023/09/11 07:06:07;;;;;;;35.33;29.92;;;;;;;16.12;100.00;101403.69;4977148;28;20194;-45
2023/09/11 07:08:33;;;;;;;37.13;32.35;;;;;;;16.08;100.00;101405.66;4981336;28;20192;-44
2023/09/11 07:10:59;;;;;;;33.85;29.95;;;;;;;16.18;100.00;101401.53;4981527;28;20311;-46
2023/09/11 07:13:24;;;;;;;33.65;29.90;;;;;;;16.25;100.00;101397.56;4984128;28;20272;-45
2023/09/11 07:15:55;;;;;;;32.80;29.30;;;;;;;16.35;100.00;101394.34;4983341;28;20181;-45
2023/09/11 07:18:20;;;;;;;30.42;27.25;;;;;;;16.51;100.00;101383.56;4968867;28;20197;-43
2023/09/11 07:20:45;;;;;;;33.90;29.67;;;;;;;16.36;100.00;101386.16;4970355;28;20623;-45
2023/09/11 07:23:11;;;;;;;33.58;29.00;;;;;;;16.43;100.00;101375.88;4983266;28;20296;-45
2023/09/11 07:25:37;;;;;;;34.17;29.83;;;;;;;16.56;100.00;101366.16;4978144;28;20181;-44
2023/09/11 07:28:03;;;;;;;38.08;30.40;;;;;;;16.57;100.00;101383.25;4979711;28;20201;-46
2023/09/11 07:30:29;;;;;;;36.30;32.08;;;;;;;16.67;100.00;101376.38;4983558;28;20573;-45
2023/09/11 07:32:55;;;;;;;32.55;29.02;;;;;;;16.81;100.00;101376.50;4979710;28;20624;-46
2023/09/11 07:35:21;;;;;;;35.80;31.83;;;;;;;16.64;100.00;101368.44;4980997;28;20545;-46
2023/09/11 07:37:48;;;;;;;36.15;32.25;;;;;;;16.76;100.00;101373.16;4982241;28;20186;-45
2023/09/11 07:40:14;;;;;;;34.65;30.70;;;;;;;16.86;100.00;101371.72;4979930;28;20196;-44
2023/09/11 07:42:39;;;;;;;33.70;30.08;;;;;;;16.98;100.00;101380.13;4975543;28;20240;-45
2023/09/11 07:45:06;;;;;;;30.13;27.17;;;;;;;17.05;100.00;101377.00;4979612;28;20197;-45
2023/09/11 07:47:32;;;;;;;33.60;30.20;;;;;;;17.09;100.00;101366.84;4978090;28;20252;-45
2023/09/11 07:49:57;;;;;;;33.65;30.10;;;;;;;17.08;100.00;101368.69;4976697;28;20210;-44
2023/09/11 07:52:23;;;;;;;32.47;29.00;;;;;;;17.37;100.00;101362.56;4975926;28;20193;-45
2023/09/11 07:54:48;;;;;;;31.00;27.77;;;;;;;17.50;100.00;101352.75;4980039;28;20182;-43
2023/09/11 07:57:14;;;;;;;29.70;26.63;;;;;;;17.59;100.00;101348.63;4981764;28;20198;-45
2023/09/11 07:59:39;;;;;;;30.52;27.50;;;;;;;17.69;100.00;101336.28;4977756;28;20189;-45
2023/09/11 08:02:05;;;;;;;28.52;25.70;;;;;;;18.18;100.00;101335.13;4979946;28;20644;-45
2023/09/11 08:04:32;;;;;;;27.27;24.58;;;;;;;18.60;100.00;101322.53;4977536;28;20194;-43
2023/09/11 08:06:57;;;;;;;27.88;25.23;;;;;;;18.55;100.00;101302.97;4980614;28;20675;-45
2023/09/11 08:09:23;;;;;;;26.70;24.02;;;;;;;19.13;100.00;101304.59;4978433;28;20213;-45
2023/09/11 08:11:49;;;;;;;26.55;23.88;;;;;;;19.55;100.00;101302.72;4977847;28;20689;-45
2023/09/11 08:14:16;;;;;;;27.73;24.90;;;;;;;19.28;100.00;101297.28;4977366;28;20541;-45
2023/09/11 08:16:42;;;;;;;27.15;24.45;;;;;;;19.31;100.00;101295.25;4977484;28;20189;-45
2023/09/11 08:19:09;;;;;;;26.55;23.85;;;;;;;19.71;100.00;101278.06;4979510;28;20193;-44
2023/09/11 08:21:34;;;;;;;26.58;23.88;;;;;;;19.89;100.00;101278.63;4978618;28;20675;-45
2023/09/11 08:24:00;;;;;;;27.52;24.80;;;;;;;19.38;100.00;101278.53;4978819;28;20186;-45
2023/09/11 08:26:26;;;;;;;26.15;23.50;;;;;;;19.70;100.00;101269.06;4977988;28;20262;-45
2023/09/11 08:28:51;;;;;;;25.90;23.40;;;;;;;20.14;100.00;101258.75;4978623;28;20185;-46
2023/09/11 08:31:17;;;;;;;27.17;24.58;;;;;;;20.14;100.00;101265.03;4979663;28;20706;-45
2023/09/11 08:33:42;;;;;;;26.23;23.75;;;;;;;20.16;100.00;101260.38;4977497;28;20215;-45
2023/09/11 08:36:09;;;;;;;25.63;23.02;;;;;;;20.22;100.00;101250.88;4982725;28;20181;-47
2023/09/11 08:38:35;;;;;;;21.65;19.55;;;;;;;20.62;100.00;101252.56;4978174;28;20189;-45
2023/09/11 08:41:04;;;;;;;23.60;21.35;;;;;;;20.67;100.00;101247.66;4979544;28;20197;-46
2023/09/11 08:43:30;;;;;;;24.13;21.80;;;;;;;20.64;100.00;101242.44;4977170;28;20208;-45
2023/09/11 08:45:56;;;;;;;21.67;19.48;;;;;;;20.76;100.00;101238.81;4977139;28;20186;-45
2023/09/11 08:48:28;;;;;;;21.75;19.65;;;;;;;21.25;100.00;101226.03;4975679;28;20197;-44
2023/09/11 08:51:00;;;;;;;20.38;18.48;;;;;;;21.58;100.00;101228.03;4976550;28;20245;-46
2023/09/11 08:53:27;;;;;;;21.33;19.23;;;;;;;21.53;100.00;101216.63;4976641;28;20239;-46
2023/09/11 08:55:55;;;;;;;22.42;20.35;;;;;;;21.48;100.00;101210.66;4976980;28;20713;-45
2023/09/11 08:58:21;;;;;;;23.02;20.83;;;;;;;21.55;100.00;101209.19;4977885;28;20185;-45
2023/09/11 09:00:47;;;;;;;20.70;18.70;;;;;;;21.49;100.00;101207.81;4982960;28;20204;-44
2023/09/11 09:03:13;;;;;;;20.35;18.42;;;;;;;21.68;100.00;101200.91;4976878;28;20208;-45
2023/09/11 09:05:40;;;;;;;20.27;18.38;;;;;;;21.78;100.00;101199.22;4978003;28;20280;-46
2023/09/11 09:08:07;;;;;;;19.90;18.10;;;;;;;21.99;100.00;101182.97;4979977;28;20568;-44
2023/09/11 09:10:33;;;;;;;19.35;17.45;;;;;;;22.18;98.99;101177.75;4974034;28;20304;-46
2023/09/11 09:12:59;;;;;;;20.70;18.77;;;;;;;22.15;98.13;101179.84;4978964;28;20266;-47
2023/09/11 09:15:28;;;;;;;19.65;17.65;;;;;;;22.42;97.40;101177.63;4980178;28;20181;-46
2023/09/11 09:17:54;;;;;;;21.05;18.95;;;;;;;22.12;95.32;101177.38;4982511;28;20258;-45
2023/09/11 09:20:20;;;;;;;20.48;18.40;;;;;;;22.19;94.59;101179.50;4975944;28;20220;-46
2023/09/11 09:22:53;;;;;;;18.00;16.17;;;;;;;22.60;93.80;101185.28;4981533;28;20647;-47
2023/09/11 09:25:19;;;;;;;17.45;15.85;;;;;;;22.71;92.59;101181.66;4978173;28;20322;-45
2023/09/11 09:27:44;;;;;;;18.75;16.45;;;;;;;22.87;92.13;101168.44;4979121;28;20184;-46
2023/09/11 09:30:27;;;;;;;17.13;15.63;;;;;;;22.99;90.13;101161.06;4976695;28;20209;-45
2023/09/11 09:32:54;;;;;;;18.65;16.95;;;;;;;23.03;88.26;101141.56;4978328;28;20566;-47
2023/09/11 09:35:31;;;;;;;16.05;14.60;;;;;;;23.30;86.85;101134.69;4974304;28;20576;-45
2023/09/11 09:37:57;;;;;;;18.90;17.30;;;;;;;22.79;87.83;101140.91;4979501;28;20706;-46
2023/09/11 09:40:35;;;;;;;15.93;14.43;;;;;;;23.24;88.02;101132.50;4979836;28;20790;-44
2023/09/11 09:43:04;;;;;;;17.63;15.32;;;;;;;23.22;85.89;101123.56;4981367;28;20346;-44
2023/09/11 09:45:44;;;;;;;16.00;14.48;;;;;;;23.15;86.22;101114.16;4976853;28;20623;-46
2023/09/11 09:48:15;;;;;;;16.15;14.55;;;;;;;23.56;85.61;101109.66;4977135;28;20197;-43
2023/09/11 09:50:59;;;;;;;14.77;13.40;;;;;;;23.39;84.03;101109.28;4979506;28;20287;-42
2023/09/11 09:53:31;;;;;;;15.93;14.43;;;;;;;23.48;83.85;101107.59;4981670;28;20184;-44
2023/09/11 09:56:05;;;;;;;15.52;13.93;;;;;;;23.92;81.89;101107.38;4975153;28;20559;-44
2023/09/11 09:58:37;;;;;;;15.15;13.75;;;;;;;23.76;81.74;101114.25;4978160;28;20268;-43
2023/09/11 10:01:07;;;;;;;13.55;12.15;;;;;;;23.74;81.93;101108.00;4979218;28;20209;-44
2023/09/11 10:03:41;;;;;;;15.93;14.38;;;;;;;23.54;82.60;101112.53;4971113;28;20189;-44
2023/09/11 10:06:13;;;;;;;13.63;11.65;;;;;;;24.23;82.39;101108.22;4978082;28;20216;-44
2023/09/11 10:08:39;;;;;;;12.98;11.88;;;;;;;24.22;81.04;101088.16;4977609;28;20675;-43
2023/09/11 10:11:04;;;;;;;13.82;12.52;;;;;;;24.32;80.00;101088.19;4976006;28;20291;-45
2023/09/11 10:13:32;;;;;;;12.77;11.57;;;;;;;24.21;78.82;101091.06;4977367;28;20215;-46
2023/09/11 10:15:58;;;;;;;12.40;11.30;;;;;;;24.04;78.73;101089.88;4979608;28;20670;-45
2023/09/11 10:18:24;;;;;;;12.35;11.10;;;;;;;24.49;77.60;101078.47;4979703;28;20272;-47
2023/09/11 10:20:50;;;;;;;10.68;9.68;;;;;;;24.74;76.98;101068.78;4976526;28;20200;-46
2023/09/11 10:23:16;;;;;;;10.15;9.23;;;;;;;24.87;76.44;101066.59;4980473;28;20240;-47
2023/09/11 10:25:45;;;;;;;11.00;10.00;;;;;;;24.50;77.11;101077.44;4980623;28;20195;-47
2023/09/11 10:28:21;;;;;;;16.33;14.70;;;;;;;24.45;78.10;101085.19;4974280;28;20679;-44
2023/09/11 10:31:20;;;;;;;13.50;12.30;;;;;;;24.57;79.58;101092.28;4977938;28;20227;-45
2023/09/11 10:33:49;;;;;;;10.48;9.57;;;;;;;24.43;77.92;101074.38;4968342;28;20212;-46
2023/09/11 10:36:20;;;;;;;9.93;8.90;;;;;;;24.87;78.16;101071.22;4976356;28;20256;-45
2023/09/11 10:38:47;;;;;;;9.85;8.95;;;;;;;25.16;75.97;101060.22;4971920;28;20198;-45
2023/09/11 10:41:13;;;;;;;10.57;9.48;;;;;;;25.07;75.64;101051.00;4979588;28;20358;-46
2023/09/11 10:43:38;;;;;;;7.45;6.75;;;;;;;25.02;74.06;101036.00;4978694;28;20185;-44
2023/09/11 10:46:34;;;;;;;8.80;7.90;;;;;;;25.57;71.88;101022.41;4973754;28;20192;-44
2023/09/11 10:49:12;;;;;;;9.05;8.20;;;;;;;25.62;71.43;101016.47;4967507;28;20196;-45
2023/09/11 10:51:38;;;;;;;9.40;8.48;;;;;;;25.65;71.29;101011.56;4977124;28;20201;-45
2023/09/11 10:54:06;;;;;;;8.57;7.65;;;;;;;25.58;70.91;100994.00;4974113;28;20186;-45
2023/09/11 10:56:35;;;;;;;8.63;7.60;;;;;;;25.48;70.87;101001.38;4977027;28;20255;-47
2023/09/11 10:59:02;;;;;;;8.00;7.18;;;;;;;25.56;71.30;101011.59;4967722;28;20185;-44
2023/09/11 11:01:27;;;;;;;8.77;7.25;;;;;;;25.56;71.52;101019.81;4978025;28;20287;-45
2023/09/11 11:03:53;;;;;;;11.05;6.80;;;;;;;25.67;69.55;101009.53;4973813;28;20651;-45